createdAt,value
2018-03-31T00:03:10.282Z,14.37
2018-03-31T00:07:12.330Z,14.77
2018-03-31T00:11:14.364Z,14.37
2018-03-31T00:15:16.445Z,13.90
2018-03-31T00:19:18.713Z,14.27
2018-03-31T00:23:20.753Z,14.60
2018-03-31T00:27:22.799Z,14.83
2018-03-31T00:31:24.873Z,14.23
2018-03-31T00:35:26.922Z,14.90
2018-03-31T00:39:28.936Z,15.90
2018-03-31T00:43:30.992Z,15.37
2018-03-31T00:47:33.030Z,15.67
2018-03-31T00:51:35.068Z,15.27
2018-03-31T00:55:37.104Z,15.70
2018-03-31T00:59:39.879Z,14.63
2018-03-31T01:03:41.930Z,14.27
2018-03-31T01:07:43.978Z,15.10
2018-03-31T01:11:46.044Z,14.97
2018-03-31T01:15:48.105Z,15.60
2018-03-31T01:19:50.156Z,14.67
2018-03-31T01:23:53.582Z,14.83
2018-03-31T01:27:55.626Z,16.13
2018-03-31T01:31:58.445Z,14.93
2018-03-31T01:36:00.536Z,15.17
2018-03-31T01:40:02.593Z,15.63
2018-03-31T01:44:04.637Z,15.70
2018-03-31T01:48:07.446Z,15.37
2018-03-31T01:52:10.259Z,15.57
2018-03-31T01:56:12.322Z,15.53
2018-03-31T02:00:14.344Z,15.60
2018-03-31T02:04:16.400Z,14.23
2018-03-31T02:08:18.436Z,15.27
2018-03-31T02:12:20.474Z,15.70
2018-03-31T02:16:22.521Z,15.03
2018-03-31T02:20:24.544Z,16.13
2018-03-31T02:24:27.355Z,15.40
2018-03-31T02:28:29.426Z,16.10
2018-03-31T02:32:32.254Z,15.17
2018-03-31T02:36:34.308Z,15.30
2018-03-31T02:40:36.337Z,15.90
2018-03-31T02:44:39.162Z,16.07
2018-03-31T02:48:41.220Z,15.37
2018-03-31T02:52:44.026Z,14.97
2018-03-31T02:56:46.073Z,16.23
2018-03-31T03:00:48.096Z,15.97
2018-03-31T03:04:50.141Z,16.60
2018-03-31T03:08:52.194Z,15.20
2018-03-31T03:12:54.997Z,16.40
2018-03-31T03:16:57.042Z,17.50
2018-03-31T03:20:59.061Z,16.80
2018-03-31T03:25:01.103Z,17.53
2018-03-31T03:29:03.917Z,16.20
2018-03-31T03:33:05.962Z,16.70
2018-03-31T03:37:08.005Z,16.87
2018-03-31T03:41:10.030Z,16.50
2018-03-31T03:45:12.315Z,16.73
2018-03-31T03:49:14.365Z,17.27
2018-03-31T03:53:16.466Z,17.33
2018-03-31T03:57:18.525Z,17.90
2018-03-31T04:01:20.566Z,17.77
2018-03-31T04:05:22.589Z,18.77
2018-03-31T04:09:24.641Z,18.37
2018-03-31T04:13:27.454Z,19.13
2018-03-31T04:17:29.496Z,19.20
2018-03-31T04:21:32.312Z,19.80
2018-03-31T04:25:34.335Z,19.03
2018-03-31T04:29:36.377Z,19.73
2018-03-31T04:33:38.418Z,19.57
2018-03-31T04:37:41.229Z,20.77
2018-03-31T04:41:43.287Z,21.43
2018-03-31T04:45:45.309Z,20.57
2018-03-31T04:49:47.348Z,19.70
2018-03-31T04:53:49.395Z,19.73
2018-03-31T04:57:52.223Z,19.70
2018-03-31T05:01:54.370Z,20.73
2018-03-31T05:05:57.230Z,21.53
2018-03-31T05:09:59.282Z,21.57
2018-03-31T05:14:01.338Z,21.83
2018-03-31T05:18:03.373Z,21.20
2018-03-31T05:22:06.182Z,22.13
2018-03-31T05:26:08.206Z,22.03
2018-03-31T05:30:10.245Z,21.87
2018-03-31T05:34:12.286Z,23.07
2018-03-31T05:38:15.104Z,22.23
2018-03-31T05:42:17.179Z,21.97
2018-03-31T05:46:19.205Z,21.83
2018-03-31T05:50:21.240Z,23.23
2018-03-31T05:54:23.290Z,21.47
2018-03-31T05:58:25.342Z,24.37
2018-03-31T06:02:27.398Z,21.27
2018-03-31T06:06:29.417Z,21.97
2018-03-31T06:10:31.462Z,23.83
2018-03-31T06:14:34.283Z,23.23
2018-03-31T06:18:36.322Z,23.17
2018-03-31T06:22:39.122Z,22.77
2018-03-31T06:26:41.158Z,23.93
2018-03-31T06:30:43.220Z,23.47
2018-03-31T06:34:45.274Z,24.80
2018-03-31T06:38:47.318Z,24.83
2018-03-31T06:42:49.362Z,25.07
2018-03-31T06:46:51.408Z,24.87
2018-03-31T06:50:53.460Z,26.40
2018-03-31T06:54:55.508Z,26.73
2018-03-31T06:58:58.486Z,26.43
2018-03-31T07:03:01.317Z,28.03
2018-03-31T07:07:03.368Z,27.00
2018-03-31T07:11:06.164Z,27.20
2018-03-31T07:15:08.210Z,27.73
2018-03-31T07:19:10.249Z,28.23
2018-03-31T07:23:12.347Z,27.77
2018-03-31T07:27:14.389Z,29.07
2018-03-31T07:31:16.414Z,28.60
2018-03-31T07:35:19.233Z,26.53
2018-03-31T07:39:21.268Z,26.47
2018-03-31T07:43:23.317Z,26.00
2018-03-31T07:47:25.369Z,27.50
2018-03-31T07:51:27.409Z,26.30
2018-03-31T07:55:30.228Z,26.73
2018-03-31T07:59:32.295Z,25.70
2018-03-31T08:03:34.583Z,25.53
2018-03-31T08:07:36.637Z,25.77
2018-03-31T08:11:38.904Z,25.47
2018-03-31T08:15:40.998Z,24.37
2018-03-31T08:19:43.050Z,24.00
2018-03-31T08:23:45.872Z,23.83
2018-03-31T08:27:47.916Z,21.90
2018-03-31T08:31:50.392Z,23.77
2018-03-31T08:35:52.436Z,22.13
2018-03-31T08:39:54.526Z,22.97
2018-03-31T08:43:56.565Z,23.40
2018-03-31T08:47:58.605Z,22.27
2018-03-31T08:52:00.701Z,22.27
2018-03-31T08:56:02.745Z,22.83
2018-03-31T09:00:05.557Z,22.33
2018-03-31T09:04:07.601Z,22.43
2018-03-31T09:08:10.418Z,22.33
2018-03-31T09:12:12.454Z,23.90
2018-03-31T09:16:15.273Z,25.37
2018-03-31T09:20:17.322Z,24.17
2018-03-31T09:24:19.377Z,23.70
2018-03-31T09:28:21.420Z,24.20
2018-03-31T09:32:23.447Z,23.30
2018-03-31T09:36:26.258Z,23.57
2018-03-31T09:40:28.306Z,23.33
2018-03-31T09:44:30.414Z,22.63
2018-03-31T09:48:32.413Z,22.40
2018-03-31T09:52:34.457Z,24.40
2018-03-31T09:56:36.493Z,23.83
2018-03-31T10:00:38.547Z,23.50
2018-03-31T10:04:40.593Z,24.70
2018-03-31T10:08:42.640Z,24.40
2018-03-31T10:12:44.670Z,25.47
2018-03-31T10:16:46.731Z,25.00
2018-03-31T10:20:48.775Z,25.77
2018-03-31T10:24:50.813Z,24.30
2018-03-31T10:28:53.626Z,25.93
2018-03-31T10:32:55.673Z,27.17
2018-03-31T10:36:57.722Z,26.60
2018-03-31T10:40:59.763Z,27.17
2018-03-31T10:45:01.813Z,27.97
2018-03-31T10:49:04.632Z,27.03
2018-03-31T10:53:06.674Z,27.23
2018-03-31T10:57:09.465Z,26.70
2018-03-31T11:01:12.282Z,26.20
2018-03-31T11:05:14.341Z,32.10
2018-03-31T11:09:16.488Z,29.67
2018-03-31T11:13:19.538Z,26.40
2018-03-31T11:17:21.666Z,27.87
2018-03-31T11:21:23.668Z,28.33
2018-03-31T11:25:25.713Z,26.57
2018-03-31T11:29:29.387Z,23.30
2018-03-31T11:33:31.431Z,23.37
2018-03-31T11:37:33.473Z,22.57
2018-03-31T11:41:36.045Z,23.07
2018-03-31T11:45:38.088Z,20.83
2018-03-31T11:49:40.138Z,22.13
2018-03-31T11:53:42.183Z,22.20
2018-03-31T11:57:44.983Z,21.10
2018-03-31T12:01:47.294Z,20.87
2018-03-31T12:05:49.344Z,19.90
2018-03-31T12:09:51.460Z,20.10
2018-03-31T12:13:53.475Z,20.10
2018-03-31T12:17:56.267Z,19.40
2018-03-31T12:21:59.083Z,19.50
2018-03-31T12:26:01.125Z,20.07
2018-03-31T12:30:03.925Z,19.53
2018-03-31T12:34:06.759Z,19.23
2018-03-31T12:38:08.782Z,19.17
2018-03-31T12:42:11.581Z,21.23
2018-03-31T12:46:14.401Z,20.17
2018-03-31T12:50:16.451Z,20.63
2018-03-31T12:54:19.382Z,19.83
2018-03-31T12:58:21.428Z,21.33
2018-03-31T13:02:23.475Z,19.50
2018-03-31T13:06:26.285Z,19.13
2018-03-31T13:10:28.333Z,19.43
2018-03-31T13:14:31.225Z,18.00
2018-03-31T13:18:33.259Z,18.80
2018-03-31T13:22:35.308Z,20.07
2018-03-31T13:26:37.363Z,19.20
2018-03-31T13:30:39.418Z,22.97
2018-03-31T13:34:42.222Z,27.27
2018-03-31T13:38:44.289Z,20.47
2018-03-31T13:42:47.160Z,21.10
2018-03-31T13:46:49.986Z,20.07
2018-03-31T13:50:52.797Z,21.50
2018-03-31T13:54:55.582Z,27.07
2018-03-31T13:58:57.635Z,20.47
2018-03-31T14:03:00.438Z,22.83
2018-03-31T14:07:02.489Z,20.83
2018-03-31T14:11:05.307Z,21.67
2018-03-31T14:15:07.353Z,20.30
2018-03-31T14:19:09.420Z,20.17
2018-03-31T14:23:11.445Z,18.83
2018-03-31T14:27:13.484Z,18.10
2018-03-31T14:31:16.331Z,19.30
2018-03-31T14:35:18.388Z,19.20
2018-03-31T14:39:20.441Z,19.73
2018-03-31T14:43:22.481Z,21.00
2018-03-31T14:47:24.544Z,33.00
2018-03-31T14:51:26.606Z,23.97
2018-03-31T14:55:28.701Z,21.60
2018-03-31T14:59:30.736Z,29.10
2018-03-31T15:03:32.776Z,25.37
2018-03-31T15:07:34.866Z,25.77
2018-03-31T15:11:36.913Z,23.83
2018-03-31T15:15:39.759Z,24.67
2018-03-31T15:19:41.802Z,22.87
2018-03-31T15:23:43.832Z,23.27
2018-03-31T15:27:45.883Z,27.03
2018-03-31T15:31:47.929Z,28.87
2018-03-31T15:35:49.977Z,21.23
2018-03-31T15:39:52.878Z,20.50
2018-03-31T15:43:54.842Z,21.23
2018-03-31T15:47:57.654Z,20.47
2018-03-31T15:51:59.699Z,21.77
2018-03-31T15:56:02.532Z,20.80
2018-03-31T16:00:04.621Z,21.43
2018-03-31T16:04:06.651Z,21.40
2018-03-31T16:08:08.701Z,20.60
2018-03-31T16:12:11.529Z,20.53
2018-03-31T16:16:13.789Z,19.73
2018-03-31T16:20:15.880Z,21.70
2018-03-31T16:24:17.909Z,29.33
2018-03-31T16:28:20.033Z,23.37
2018-03-31T16:32:22.077Z,17.57
2018-03-31T16:36:24.893Z,16.57
2018-03-31T16:40:26.941Z,21.17
2018-03-31T16:44:28.978Z,18.63
2018-03-31T16:48:31.036Z,14.23
2018-03-31T16:52:33.112Z,14.13
2018-03-31T16:56:35.178Z,15.17
2018-03-31T17:00:37.230Z,18.47
2018-03-31T17:04:39.308Z,22.47
2018-03-31T17:08:41.349Z,17.47
2018-03-31T17:12:44.164Z,16.63
2018-03-31T17:16:46.225Z,14.90
2018-03-31T17:20:48.286Z,13.70
2018-03-31T17:24:51.077Z,13.20
2018-03-31T17:28:53.901Z,13.40
2018-03-31T17:32:55.960Z,34.07
2018-03-31T17:36:58.035Z,17.43
2018-03-31T17:41:00.093Z,22.57
2018-03-31T17:45:02.896Z,16.83
2018-03-31T17:49:05.765Z,14.30
2018-03-31T17:53:07.794Z,16.27
2018-03-31T17:57:09.854Z,12.87
2018-03-31T18:01:11.967Z,13.00
2018-03-31T18:05:14.016Z,13.70
2018-03-31T18:09:16.046Z,19.10
2018-03-31T18:13:18.866Z,36.50
2018-03-31T18:17:20.908Z,33.90
2018-03-31T18:21:23.722Z,37.93
2018-03-31T18:25:25.780Z,91.30
2018-03-31T18:29:28.664Z,32.07
2018-03-31T18:33:30.742Z,30.83
2018-03-31T18:37:33.565Z,34.33
2018-03-31T18:41:35.615Z,24.87
2018-03-31T18:45:38.441Z,36.63
2018-03-31T18:49:40.478Z,25.90
2018-03-31T18:53:43.293Z,34.03
2018-03-31T18:57:45.341Z,30.17
2018-03-31T19:01:48.149Z,39.20
2018-03-31T19:05:50.196Z,38.90
2018-03-31T19:09:52.985Z,30.63
2018-03-31T19:13:55.029Z,24.03
2018-03-31T19:17:57.094Z,19.70
2018-03-31T19:21:59.132Z,17.70
2018-03-31T19:26:01.182Z,18.37
2018-03-31T19:30:03.974Z,18.03
2018-03-31T19:34:06.846Z,18.10
2018-03-31T19:38:09.628Z,17.93
2018-03-31T19:42:11.695Z,17.43
2018-03-31T19:46:13.733Z,18.27
2018-03-31T19:50:15.778Z,19.73
2018-03-31T19:54:18.601Z,19.90
2018-03-31T19:58:20.641Z,30.13
2018-03-31T20:02:23.470Z,23.47
2018-03-31T20:06:25.574Z,25.03
2018-03-31T20:10:27.651Z,28.23
2018-03-31T20:14:29.756Z,24.53
2018-03-31T20:18:32.631Z,27.43
2018-03-31T20:22:34.736Z,26.63
2018-03-31T20:26:37.735Z,27.47
2018-03-31T20:30:40.599Z,27.57
2018-03-31T20:34:42.724Z,29.87
2018-03-31T20:38:44.829Z,31.90
2018-03-31T20:42:47.075Z,41.37
2018-03-31T20:46:49.165Z,29.37
2018-03-31T20:50:51.273Z,31.17
2018-03-31T20:54:53.387Z,30.50
2018-03-31T20:58:55.494Z,33.83
2018-03-31T21:02:57.621Z,39.53
2018-03-31T21:06:59.694Z,28.77
2018-03-31T21:11:01.754Z,31.43
2018-03-31T21:15:03.882Z,30.17
2018-03-31T21:19:06.121Z,31.00
2018-03-31T21:23:09.319Z,31.93
2018-03-31T21:27:12.355Z,28.43
2018-03-31T21:31:14.458Z,31.77
2018-03-31T21:35:17.225Z,30.37
2018-03-31T21:39:20.014Z,31.37
2018-03-31T21:43:22.333Z,31.67
2018-03-31T21:47:24.482Z,29.77
2018-03-31T21:51:26.681Z,33.70
2018-03-31T21:55:28.937Z,36.43
2018-03-31T21:59:30.989Z,36.73
2018-03-31T22:03:33.047Z,37.40
2018-03-31T22:07:35.096Z,37.90
2018-03-31T22:11:38.109Z,35.63
2018-03-31T22:15:45.882Z,36.10
2018-03-31T22:19:47.942Z,38.33
2018-03-31T22:23:50.001Z,36.53
2018-03-31T22:27:52.057Z,32.27
2018-03-31T22:31:54.101Z,32.27
2018-03-31T22:35:57.007Z,31.17
2018-03-31T22:39:59.141Z,33.07
2018-03-31T22:44:01.259Z,32.83
2018-03-31T22:48:03.370Z,31.77
2018-03-31T22:52:05.587Z,32.77
2018-03-31T22:56:08.451Z,32.57
2018-03-31T23:00:10.572Z,31.00
2018-03-31T23:04:13.450Z,32.80
2018-03-31T23:08:15.550Z,33.90
2018-03-31T23:12:17.662Z,29.27
2018-03-31T23:16:19.752Z,28.27
2018-03-31T23:20:21.876Z,29.80
2018-03-31T23:24:24.000Z,29.70
2018-03-31T23:28:26.040Z,30.97
2018-03-31T23:32:28.097Z,31.20
2018-03-31T23:36:30.132Z,31.37
2018-03-31T23:40:32.180Z,30.93
2018-03-31T23:44:34.235Z,30.93
2018-03-31T23:48:36.302Z,32.13
2018-03-31T23:52:38.345Z,34.20
2018-03-31T23:56:41.143Z,34.43
